createdAt,value
2022-11-27T00:01:21.897Z,17.23
2022-11-27T00:03:49.532Z,15.45
2022-11-27T00:06:19.371Z,14.90
2022-11-27T00:11:15.970Z,14.23
2022-11-27T00:16:09.914Z,17.30
2022-11-27T00:18:36.748Z,16.88
2022-11-27T00:21:08.000Z,14.45
2022-11-27T00:23:36.503Z,14.60
2022-11-27T00:26:04.482Z,14.07
2022-11-27T00:28:31.740Z,13.90
2022-11-27T00:31:00.236Z,15.10
2022-11-27T00:33:26.853Z,14.93
2022-11-27T00:35:53.741Z,14.88
2022-11-27T00:38:20.599Z,14.95
2022-11-27T00:40:47.852Z,15.65
2022-11-27T00:43:14.507Z,15.23
2022-11-27T00:45:41.106Z,16.38
2022-11-27T00:48:07.730Z,16.42
2022-11-27T00:50:34.337Z,17.10
2022-11-27T00:53:01.166Z,15.95
2022-11-27T00:55:27.767Z,15.43
2022-11-27T00:57:54.305Z,15.48
2022-11-27T01:00:22.175Z,15.38
2022-11-27T01:02:48.807Z,14.30
2022-11-27T01:05:15.468Z,14.90
2022-11-27T01:07:42.439Z,14.57
2022-11-27T01:10:09.635Z,14.68
2022-11-27T01:12:36.266Z,15.93
2022-11-27T01:15:03.996Z,14.88
2022-11-27T01:17:30.601Z,15.10
2022-11-27T01:19:57.226Z,14.65
2022-11-27T01:22:23.770Z,15.30
2022-11-27T01:24:50.384Z,14.13
2022-11-27T01:27:16.979Z,15.57
2022-11-27T01:29:43.666Z,14.98
2022-11-27T01:32:10.275Z,14.88
2022-11-27T01:34:36.857Z,15.07
2022-11-27T01:37:03.494Z,15.77
2022-11-27T01:39:30.124Z,14.60
2022-11-27T01:41:56.749Z,15.23
2022-11-27T01:44:23.248Z,13.75
2022-11-27T01:47:07.136Z,15.05
2022-11-27T01:49:38.779Z,15.82
2022-11-27T01:52:15.974Z,15.70
2022-11-27T01:54:42.772Z,16.30
2022-11-27T01:57:18.980Z,15.77
2022-11-27T01:59:48.074Z,15.45
2022-11-27T02:02:14.966Z,15.65
2022-11-27T02:04:41.784Z,15.60
2022-11-27T02:07:08.587Z,16.23
2022-11-27T02:09:35.461Z,15.75
2022-11-27T02:12:02.405Z,16.65
2022-11-27T02:14:53.814Z,16.17
2022-11-27T02:17:28.367Z,15.55
2022-11-27T02:20:18.741Z,16.67
2022-11-27T02:23:13.307Z,15.48
2022-11-27T02:25:52.470Z,16.80
2022-11-27T02:28:48.175Z,15.23
2022-11-27T02:31:21.865Z,15.35
2022-11-27T02:33:55.130Z,14.48
2022-11-27T02:36:29.588Z,14.48
2022-11-27T02:39:05.394Z,14.45
2022-11-27T02:41:53.912Z,15.02
2022-11-27T02:44:22.732Z,13.05
2022-11-27T02:46:50.047Z,14.33
2022-11-27T02:49:18.986Z,14.13
2022-11-27T02:51:51.030Z,13.17
2022-11-27T02:54:23.472Z,13.77
2022-11-27T02:56:53.006Z,12.98
2022-11-27T02:59:21.875Z,13.98
2022-11-27T03:01:53.731Z,12.93
2022-11-27T03:04:28.356Z,13.35
2022-11-27T03:06:59.314Z,15.18
2022-11-27T03:09:34.352Z,14.75
2022-11-27T03:12:02.801Z,13.00
2022-11-27T03:14:29.584Z,13.82
2022-11-27T03:17:02.814Z,13.90
2022-11-27T03:20:09.862Z,14.13
2022-11-27T03:22:36.498Z,14.73
2022-11-27T03:25:04.093Z,14.25
2022-11-27T03:27:37.502Z,13.90
2022-11-27T03:30:06.974Z,14.65
2022-11-27T03:32:33.852Z,13.65
2022-11-27T03:35:00.840Z,14.13
2022-11-27T03:37:28.295Z,15.02
2022-11-27T03:39:55.226Z,14.98
2022-11-27T03:42:53.048Z,14.60
2022-11-27T03:45:32.971Z,14.15
2022-11-27T03:48:02.575Z,14.45
2022-11-27T03:50:54.967Z,14.85
2022-11-27T03:53:33.649Z,14.55
2022-11-27T03:56:33.915Z,14.15
2022-11-27T03:59:07.651Z,13.10
2022-11-27T04:01:34.506Z,12.88
2022-11-27T04:04:01.304Z,13.40
2022-11-27T04:06:27.986Z,13.68
2022-11-27T04:08:54.647Z,13.10
2022-11-27T04:11:21.249Z,11.18
2022-11-27T04:13:47.898Z,12.65
2022-11-27T04:16:14.551Z,12.05
2022-11-27T04:18:41.218Z,11.57
2022-11-27T04:21:07.833Z,10.95
2022-11-27T04:23:34.578Z,10.98
2022-11-27T04:26:01.320Z,10.63
2022-11-27T04:28:27.860Z,9.80
2022-11-27T04:30:54.875Z,10.30
2022-11-27T04:33:22.289Z,10.00
2022-11-27T04:35:50.520Z,9.45
2022-11-27T04:38:17.917Z,9.38
2022-11-27T04:40:44.754Z,8.85
2022-11-27T04:43:11.690Z,9.60
2022-11-27T04:45:38.572Z,9.40
2022-11-27T04:48:05.675Z,9.43
2022-11-27T04:50:32.249Z,9.07
2022-11-27T04:52:59.910Z,9.02
2022-11-27T04:55:26.831Z,9.07
2022-11-27T04:57:53.362Z,8.63
2022-11-27T05:00:20.736Z,8.93
2022-11-27T05:02:47.430Z,8.57
2022-11-27T05:05:14.113Z,8.25
2022-11-27T05:07:40.739Z,8.98
2022-11-27T05:10:08.154Z,8.60
2022-11-27T05:12:34.749Z,9.35
2022-11-27T05:15:04.465Z,9.27
2022-11-27T05:17:31.912Z,9.60
2022-11-27T05:19:59.640Z,9.45
2022-11-27T05:22:26.211Z,9.18
2022-11-27T05:24:52.771Z,9.40
2022-11-27T05:27:19.431Z,10.13
2022-11-27T05:29:46.960Z,9.65
2022-11-27T05:32:13.701Z,9.45
2022-11-27T05:34:40.548Z,9.63
2022-11-27T05:37:07.714Z,9.63
2022-11-27T05:39:34.315Z,10.13
2022-11-27T05:42:00.998Z,9.75
2022-11-27T05:44:27.648Z,10.43
2022-11-27T05:46:54.408Z,9.77
2022-11-27T05:49:21.132Z,11.05
2022-11-27T05:51:51.407Z,10.68
2022-11-27T05:54:19.085Z,10.52
2022-11-27T05:56:45.749Z,10.93
2022-11-27T05:59:12.734Z,10.80
2022-11-27T06:01:39.421Z,10.43
2022-11-27T06:04:06.223Z,10.00
2022-11-27T06:06:32.874Z,9.98
2022-11-27T06:08:59.484Z,9.75
2022-11-27T06:11:26.162Z,9.82
2022-11-27T06:13:52.876Z,9.57
2022-11-27T06:16:23.921Z,9.55
2022-11-27T06:18:52.492Z,9.70
2022-11-27T06:21:20.673Z,8.75
2022-11-27T06:23:47.641Z,9.30
2022-11-27T06:26:24.776Z,9.18
2022-11-27T06:28:52.062Z,9.55
2022-11-27T06:31:21.585Z,9.40
2022-11-27T06:33:49.744Z,8.70
2022-11-27T06:36:17.497Z,8.75
2022-11-27T06:38:45.070Z,7.78
2022-11-27T06:41:14.966Z,8.48
2022-11-27T06:43:41.915Z,9.15
2022-11-27T06:46:12.080Z,8.25
2022-11-27T06:48:38.686Z,9.57
2022-11-27T06:51:07.439Z,9.18
2022-11-27T06:53:38.031Z,8.57
2022-11-27T06:56:06.919Z,8.75
2022-11-27T06:58:33.457Z,9.17
2022-11-27T07:01:01.346Z,8.90
2022-11-27T07:03:28.358Z,8.80
2022-11-27T07:05:55.093Z,9.35
2022-11-27T07:08:22.535Z,7.97
2022-11-27T07:10:49.288Z,8.63
2022-11-27T07:13:15.962Z,9.02
2022-11-27T07:15:42.966Z,8.57
2022-11-27T07:18:09.978Z,8.40
2022-11-27T07:20:36.720Z,8.27
2022-11-27T07:23:03.398Z,8.38
2022-11-27T07:25:29.980Z,9.00
2022-11-27T07:27:56.536Z,8.63
2022-11-27T07:30:23.160Z,7.53
2022-11-27T07:32:49.704Z,8.93
2022-11-27T07:35:16.422Z,9.48
2022-11-27T07:37:42.971Z,8.40
2022-11-27T07:40:09.627Z,8.48
2022-11-27T07:42:38.681Z,7.82
2022-11-27T07:45:08.397Z,7.97
2022-11-27T07:47:34.972Z,6.72
2022-11-27T07:50:01.775Z,9.00
2022-11-27T07:52:28.375Z,7.97
2022-11-27T07:54:55.058Z,8.52
2022-11-27T07:57:21.872Z,9.05
2022-11-27T07:59:48.558Z,8.85
2022-11-27T08:02:15.346Z,7.93
2022-11-27T08:04:42.393Z,9.10
2022-11-27T08:07:09.230Z,8.35
2022-11-27T08:09:35.984Z,8.35
2022-11-27T08:12:02.621Z,8.38
2022-11-27T08:14:29.258Z,9.10
2022-11-27T08:16:56.263Z,8.18
2022-11-27T08:19:23.092Z,8.80
2022-11-27T08:21:50.067Z,7.60
2022-11-27T08:24:16.740Z,7.97
2022-11-27T08:26:43.779Z,7.30
2022-11-27T08:29:13.394Z,7.47
2022-11-27T08:31:40.320Z,7.25
2022-11-27T08:34:06.996Z,6.75
2022-11-27T08:36:33.712Z,7.75
2022-11-27T08:39:01.328Z,7.18
2022-11-27T08:41:28.163Z,8.07
2022-11-27T08:43:54.851Z,7.18
2022-11-27T08:46:21.437Z,7.78
2022-11-27T08:48:48.286Z,8.63
2022-11-27T08:51:15.622Z,8.40
2022-11-27T08:53:45.495Z,8.77
2022-11-27T08:56:18.528Z,7.63
2022-11-27T08:58:45.839Z,7.47
2022-11-27T09:01:18.391Z,8.05
2022-11-27T09:03:45.136Z,9.35
2022-11-27T09:06:15.569Z,8.68
2022-11-27T09:08:43.670Z,9.02
2022-11-27T09:11:12.313Z,7.53
2022-11-27T09:13:40.356Z,8.05
2022-11-27T09:16:18.814Z,7.40
2022-11-27T09:18:47.325Z,6.90
2022-11-27T09:21:17.924Z,8.00
2022-11-27T09:23:44.721Z,6.93
2022-11-27T09:26:17.240Z,7.55
2022-11-27T09:28:44.773Z,8.48
2022-11-27T09:31:19.649Z,7.25
2022-11-27T09:33:46.558Z,7.30
2022-11-27T09:36:16.808Z,7.25
2022-11-27T09:38:46.436Z,7.43
2022-11-27T09:41:22.493Z,6.93
2022-11-27T09:43:52.398Z,6.82
2022-11-27T09:46:40.987Z,7.50
2022-11-27T09:49:12.536Z,7.35
2022-11-27T09:51:47.044Z,7.05
2022-11-27T09:54:32.316Z,7.63
2022-11-27T09:56:59.517Z,7.22
2022-11-27T09:59:35.541Z,10.13
2022-11-27T10:02:02.312Z,7.65
2022-11-27T10:04:36.186Z,8.00
2022-11-27T10:07:23.757Z,6.40
2022-11-27T10:10:35.617Z,6.70
2022-11-27T10:13:25.633Z,6.38
2022-11-27T10:16:04.199Z,7.22
2022-11-27T10:18:54.680Z,7.60
2022-11-27T10:21:45.574Z,6.00
2022-11-27T10:24:44.323Z,6.53
2022-11-27T10:27:23.257Z,6.65
2022-11-27T10:29:55.746Z,7.15
2022-11-27T10:32:53.986Z,6.43
2022-11-27T10:35:20.138Z,6.22
2022-11-27T10:38:13.097Z,7.03
2022-11-27T10:40:55.556Z,6.07
2022-11-27T10:43:24.425Z,6.50
2022-11-27T10:45:56.732Z,5.72
2022-11-27T10:48:25.101Z,6.10
2022-11-27T10:50:51.987Z,5.72
2022-11-27T10:53:27.534Z,6.70
2022-11-27T10:56:06.245Z,6.05
2022-11-27T10:58:47.444Z,6.45
2022-11-27T11:01:25.250Z,6.30
2022-11-27T11:04:24.356Z,5.95
2022-11-27T11:06:52.180Z,6.28
2022-11-27T11:09:31.872Z,6.00
2022-11-27T11:12:21.288Z,5.72
2022-11-27T11:14:55.749Z,6.68
2022-11-27T11:17:35.119Z,5.78
2022-11-27T11:20:18.821Z,6.88
2022-11-27T11:22:47.379Z,7.20
2022-11-27T11:25:19.198Z,5.82
2022-11-27T11:27:47.946Z,6.68
2022-11-27T11:30:28.747Z,6.80
2022-11-27T11:33:14.071Z,5.65
2022-11-27T11:36:06.970Z,5.53
2022-11-27T11:38:33.831Z,5.32
2022-11-27T11:41:04.675Z,5.32
2022-11-27T11:43:35.706Z,6.63
2022-11-27T11:46:19.233Z,5.57
2022-11-27T11:48:58.568Z,5.45
2022-11-27T11:52:09.485Z,4.07
2022-11-27T11:55:02.801Z,5.28
2022-11-27T11:57:41.339Z,5.85
2022-11-27T12:00:53.143Z,4.40
2022-11-27T12:03:38.533Z,3.88
2022-11-27T12:06:20.218Z,4.07
2022-11-27T12:09:19.909Z,5.28
2022-11-27T12:14:22.194Z,4.22
2022-11-27T12:17:13.541Z,5.68
2022-11-27T12:20:03.183Z,3.92
2022-11-27T12:25:12.940Z,2.65
2022-11-27T12:27:51.980Z,2.17
2022-11-27T12:30:22.112Z,2.20
2022-11-27T12:32:51.834Z,2.33
2022-11-27T12:38:25.623Z,2.22
2022-11-27T12:41:16.048Z,2.83
2022-11-27T12:43:50.719Z,2.97
2022-11-27T12:46:37.577Z,2.30
2022-11-27T12:49:16.886Z,3.08
2022-11-27T12:51:51.785Z,5.38
2022-11-27T12:54:26.188Z,4.90
2022-11-27T12:57:00.366Z,4.78
2022-11-27T12:59:56.980Z,4.20
2022-11-27T13:02:42.359Z,5.20
2022-11-27T13:05:42.423Z,5.07
2022-11-27T13:08:16.149Z,5.05
2022-11-27T13:10:54.236Z,5.32
2022-11-27T13:13:44.226Z,5.60
2022-11-27T13:16:27.585Z,5.80
2022-11-27T13:19:12.158Z,6.22
2022-11-27T13:21:43.588Z,6.82
2022-11-27T13:24:20.832Z,6.57
2022-11-27T13:27:05.768Z,8.05
2022-11-27T13:29:53.286Z,7.65
2022-11-27T13:32:33.566Z,6.50
2022-11-27T13:35:22.013Z,6.72
2022-11-27T13:37:55.296Z,7.15
2022-11-27T13:40:27.329Z,6.72
2022-11-27T13:42:57.253Z,5.95
2022-11-27T13:45:24.303Z,6.28
2022-11-27T13:48:01.051Z,5.95
2022-11-27T13:50:31.847Z,5.85
2022-11-27T13:53:12.066Z,7.40
2022-11-27T13:55:52.221Z,5.82
2022-11-27T13:58:51.607Z,6.03
2022-11-27T14:01:24.085Z,6.85
2022-11-27T14:03:51.526Z,6.13
2022-11-27T14:06:39.075Z,6.18
2022-11-27T14:09:07.408Z,6.53
2022-11-27T14:11:41.349Z,5.63
2022-11-27T14:14:20.849Z,7.38
2022-11-27T14:17:25.280Z,6.35
2022-11-27T14:20:02.763Z,6.22
2022-11-27T14:23:07.215Z,7.07
2022-11-27T14:25:33.797Z,6.22
2022-11-27T14:28:26.257Z,4.95
2022-11-27T14:31:02.157Z,5.22
2022-11-27T14:33:47.501Z,5.28
2022-11-27T14:36:34.713Z,6.45
2022-11-27T14:39:24.605Z,6.82
2022-11-27T14:42:27.909Z,4.85
2022-11-27T14:45:08.754Z,5.50
2022-11-27T14:47:41.041Z,5.82
2022-11-27T14:50:17.584Z,6.05
2022-11-27T14:52:50.945Z,5.28
2022-11-27T14:55:19.804Z,6.28
2022-11-27T14:57:59.358Z,5.90
2022-11-27T15:00:34.180Z,5.10
2022-11-27T15:03:13.171Z,5.55
2022-11-27T15:05:40.126Z,5.72
2022-11-27T15:08:10.501Z,5.82
2022-11-27T15:10:48.534Z,6.68
2022-11-27T15:13:31.627Z,6.30
2022-11-27T15:16:15.016Z,6.95
2022-11-27T15:18:43.889Z,6.63
2022-11-27T15:21:20.419Z,7.40
2022-11-27T15:23:50.351Z,6.88
2022-11-27T15:26:47.489Z,8.18
2022-11-27T15:29:38.477Z,8.52
2022-11-27T15:32:24.619Z,8.18
2022-11-27T15:34:54.481Z,9.40
2022-11-27T15:37:35.401Z,9.30
2022-11-27T15:40:08.039Z,8.95
2022-11-27T15:42:34.942Z,8.52
2022-11-27T15:45:07.393Z,8.13
2022-11-27T15:47:37.332Z,8.18
2022-11-27T15:50:06.673Z,8.43
2022-11-27T15:52:33.699Z,8.57
2022-11-27T15:55:03.073Z,8.25
2022-11-27T15:57:36.936Z,8.90
2022-11-27T16:00:04.764Z,9.93
2022-11-27T16:02:38.378Z,8.10
2022-11-27T16:05:12.402Z,9.35
2022-11-27T16:07:39.801Z,8.63
2022-11-27T16:10:07.075Z,13.75
2022-11-27T16:12:39.791Z,10.25
2022-11-27T16:15:07.876Z,10.55
2022-11-27T16:17:35.097Z,10.20
2022-11-27T16:20:02.003Z,11.63
2022-11-27T16:22:28.694Z,9.60
2022-11-27T16:24:55.449Z,9.18
2022-11-27T16:27:22.205Z,9.30
2022-11-27T16:29:49.206Z,10.25
2022-11-27T16:32:15.911Z,10.40
2022-11-27T16:34:42.734Z,8.70
2022-11-27T16:37:18.104Z,9.55
2022-11-27T16:39:45.532Z,10.85
2022-11-27T16:42:12.547Z,15.85
2022-11-27T16:44:39.481Z,10.95
2022-11-27T16:47:06.475Z,11.40
2022-11-27T16:49:33.367Z,11.27
2022-11-27T16:52:00.717Z,13.10
2022-11-27T16:54:28.627Z,11.95
2022-11-27T16:56:56.116Z,11.57
2022-11-27T16:59:23.098Z,10.05
2022-11-27T17:01:49.919Z,11.48
2022-11-27T17:04:19.551Z,11.35
2022-11-27T17:06:48.115Z,12.25
2022-11-27T17:09:15.736Z,12.02
2022-11-27T17:11:45.502Z,10.80
2022-11-27T17:14:12.495Z,10.57
2022-11-27T17:16:41.267Z,15.18
2022-11-27T17:21:41.491Z,12.10
2022-11-27T17:24:15.327Z,11.98
2022-11-27T17:26:47.297Z,13.40
2022-11-27T17:29:16.880Z,12.95
2022-11-27T17:31:43.676Z,14.02
2022-11-27T17:34:17.675Z,11.57
2022-11-27T17:36:45.323Z,10.23
2022-11-27T17:39:14.481Z,11.23
2022-11-27T17:41:44.373Z,12.20
2022-11-27T17:44:14.183Z,11.57
2022-11-27T17:49:08.431Z,11.13
2022-11-27T17:51:39.319Z,9.80
2022-11-27T17:54:06.511Z,11.77
2022-11-27T17:56:34.906Z,11.32
2022-11-27T17:59:02.996Z,10.43
2022-11-27T18:01:30.778Z,11.52
2022-11-27T18:04:03.599Z,12.30
2022-11-27T18:09:00.789Z,12.32
2022-11-27T18:11:31.132Z,11.65
2022-11-27T18:14:01.151Z,12.75
2022-11-27T18:19:11.569Z,13.93
2022-11-27T18:21:39.483Z,23.23
2022-11-27T18:24:22.904Z,11.95
2022-11-27T18:29:39.908Z,11.73
2022-11-27T18:32:14.027Z,12.88
2022-11-27T18:34:41.701Z,12.27
2022-11-27T18:37:08.805Z,14.82
2022-11-27T18:39:37.166Z,10.85
2022-11-27T18:42:05.350Z,12.60
2022-11-27T18:44:37.249Z,11.43
2022-11-27T18:47:10.672Z,11.90
2022-11-27T18:49:38.999Z,11.15
2022-11-27T18:52:07.027Z,10.93
2022-11-27T18:54:34.005Z,12.48
2022-11-27T18:57:01.694Z,10.18
2022-11-27T18:59:30.571Z,14.30
2022-11-27T19:02:11.511Z,8.00
2022-11-27T19:04:39.377Z,10.90
2022-11-27T19:07:07.264Z,11.18
2022-11-27T19:09:33.987Z,11.15
2022-11-27T19:12:00.893Z,9.38
2022-11-27T19:14:28.333Z,9.82
2022-11-27T19:16:55.219Z,10.52
2022-11-27T19:22:15.630Z,9.40
2022-11-27T19:24:44.960Z,10.50
2022-11-27T19:27:13.023Z,8.52
2022-11-27T19:29:40.372Z,8.48
2022-11-27T19:32:07.328Z,10.48
2022-11-27T19:34:34.418Z,9.95
2022-11-27T19:37:07.753Z,11.30
2022-11-27T19:39:34.711Z,9.77
2022-11-27T19:42:03.886Z,8.90
2022-11-27T19:44:30.945Z,9.65
2022-11-27T19:46:57.701Z,9.18
2022-11-27T19:49:26.061Z,8.70
2022-11-27T19:51:55.818Z,9.45
2022-11-27T19:54:23.792Z,10.45
2022-11-27T19:56:51.209Z,12.05
2022-11-27T19:59:24.260Z,11.27
2022-11-27T20:01:53.542Z,11.13
2022-11-27T20:04:25.426Z,10.35
2022-11-27T20:06:53.197Z,11.82
2022-11-27T20:09:23.481Z,9.88
2022-11-27T20:11:53.619Z,10.88
2022-11-27T20:14:22.014Z,10.32
2022-11-27T20:16:50.525Z,9.93
2022-11-27T20:19:20.876Z,11.38
2022-11-27T20:21:50.657Z,10.93
2022-11-27T20:24:22.557Z,9.98
2022-11-27T20:26:52.436Z,10.55
2022-11-27T20:29:24.084Z,10.80
2022-11-27T20:31:51.236Z,12.63
2022-11-27T20:34:21.128Z,11.07
2022-11-27T20:36:48.926Z,10.80
2022-11-27T20:39:20.821Z,11.93
2022-11-27T20:41:52.011Z,11.90
2022-11-27T20:44:25.437Z,12.32
2022-11-27T20:46:54.623Z,11.20
2022-11-27T20:51:50.815Z,11.52
2022-11-27T20:54:22.985Z,11.90
2022-11-27T20:56:51.172Z,11.82
2022-11-27T20:59:19.073Z,10.82
2022-11-27T21:01:48.636Z,10.60
2022-11-27T21:04:23.157Z,10.77
2022-11-27T21:06:50.903Z,13.45
2022-11-27T21:09:21.945Z,11.02
2022-11-27T21:11:48.941Z,10.27
2022-11-27T21:14:16.586Z,10.77
2022-11-27T21:16:51.507Z,10.82
2022-11-27T21:19:27.890Z,11.43
2022-11-27T21:21:56.645Z,11.63
2022-11-27T21:24:27.423Z,11.52
2022-11-27T21:26:55.270Z,12.10
2022-11-27T21:29:25.592Z,10.52
2022-11-27T21:31:54.014Z,11.82
2022-11-27T21:34:21.025Z,7.45
2022-11-27T21:36:49.583Z,8.60
2022-11-27T21:39:23.831Z,7.57
2022-11-27T21:41:54.746Z,6.75
2022-11-27T21:44:24.697Z,7.30
2022-11-27T21:46:52.222Z,7.55
2022-11-27T21:49:20.520Z,9.02
2022-11-27T21:51:52.019Z,7.28
2022-11-27T21:54:19.494Z,7.68
2022-11-27T21:56:46.439Z,8.20
2022-11-27T21:59:14.160Z,7.75
2022-11-27T22:01:41.160Z,7.65
2022-11-27T22:04:07.848Z,7.90
2022-11-27T22:06:40.323Z,7.57
2022-11-27T22:09:13.355Z,7.38
2022-11-27T22:11:42.571Z,8.60
2022-11-27T22:14:09.946Z,11.23
2022-11-27T22:16:44.739Z,8.20
2022-11-27T22:19:12.383Z,6.03
2022-11-27T22:21:39.146Z,6.40
2022-11-27T22:24:12.052Z,6.72
2022-11-27T22:26:49.044Z,7.35
2022-11-27T22:29:16.829Z,7.13
2022-11-27T22:31:46.346Z,8.27
2022-11-27T22:34:18.187Z,6.90
2022-11-27T22:36:49.801Z,6.25
2022-11-27T22:39:19.731Z,5.93
2022-11-27T22:41:46.981Z,5.95
2022-11-27T22:44:21.375Z,6.35
2022-11-27T22:46:49.207Z,5.22
2022-11-27T22:49:18.141Z,5.10
2022-11-27T22:51:46.040Z,4.83
2022-11-27T22:54:17.218Z,5.40
2022-11-27T22:56:48.898Z,5.43
2022-11-27T22:59:34.729Z,4.95
2022-11-27T23:02:04.843Z,4.25
2022-11-27T23:04:32.752Z,5.43
2022-11-27T23:07:00.004Z,4.47
2022-11-27T23:09:28.197Z,4.10
2022-11-27T23:11:56.502Z,3.45
2022-11-27T23:14:24.797Z,3.63
2022-11-27T23:16:51.473Z,2.83
2022-11-27T23:19:18.341Z,2.92
2022-11-27T23:21:44.928Z,3.40
2022-11-27T23:24:14.120Z,4.10
2022-11-27T23:26:41.331Z,2.63
2022-11-27T23:29:08.245Z,2.92
2022-11-27T23:31:36.330Z,2.55
2022-11-27T23:34:07.567Z,2.78
2022-11-27T23:36:34.836Z,2.50
2022-11-27T23:39:03.740Z,2.17
2022-11-27T23:41:31.628Z,2.87
2022-11-27T23:43:58.462Z,2.70
2022-11-27T23:46:28.505Z,2.95
2022-11-27T23:48:57.770Z,3.22
2022-11-27T23:51:27.145Z,2.63
2022-11-27T23:53:54.482Z,2.75
2022-11-27T23:56:27.645Z,2.65
2022-11-27T23:58:56.517Z,2.85
